createdAt,value
2024-01-15T00:00:39.568Z,-0.96
2024-01-15T00:03:07.732Z,-0.88
2024-01-15T00:05:35.786Z,-0.81
2024-01-15T00:08:03.808Z,-0.71
2024-01-15T00:10:31.791Z,-0.53
2024-01-15T00:12:59.735Z,-0.44
2024-01-15T00:15:29.753Z,-0.19
2024-01-15T00:17:59.276Z,0.14
2024-01-15T00:20:29.647Z,0.34
2024-01-15T00:22:58.919Z,0.56
2024-01-15T00:25:26.880Z,0.86
2024-01-15T00:27:54.897Z,1.08
2024-01-15T00:30:22.942Z,1.27
2024-01-15T00:32:51.187Z,1.41
2024-01-15T00:35:20.607Z,1.41
2024-01-15T00:37:48.956Z,1.47
2024-01-15T00:40:17.268Z,1.65
2024-01-15T00:42:45.359Z,1.80
2024-01-15T00:45:13.607Z,1.82
2024-01-15T00:47:41.691Z,1.88
2024-01-15T00:50:10.273Z,2.20
2024-01-15T00:52:39.562Z,2.34
2024-01-15T00:55:08.372Z,2.41
2024-01-15T00:57:36.378Z,2.30
2024-01-15T01:00:06.752Z,2.33
2024-01-15T01:02:35.192Z,2.24
2024-01-15T01:05:03.222Z,2.14
2024-01-15T01:07:31.223Z,2.14
2024-01-15T01:10:00.587Z,2.16
2024-01-15T01:12:28.709Z,2.12
2024-01-15T01:14:56.694Z,2.04
2024-01-15T01:17:24.829Z,2.08
2024-01-15T01:19:53.146Z,2.02
2024-01-15T01:22:21.212Z,1.90
2024-01-15T01:24:49.247Z,2.08
2024-01-15T01:27:18.688Z,2.01
2024-01-15T01:29:46.688Z,1.94
2024-01-15T01:32:14.683Z,1.85
2024-01-15T01:34:43.566Z,1.86
2024-01-15T01:37:13.669Z,1.83
2024-01-15T01:39:41.713Z,1.80
2024-01-15T01:42:09.784Z,1.81
2024-01-15T01:44:39.112Z,1.68
2024-01-15T01:47:07.110Z,1.57
2024-01-15T01:49:37.080Z,1.54
2024-01-15T01:52:06.738Z,1.47
2024-01-15T01:54:34.814Z,1.40
2024-01-15T01:57:02.825Z,1.25
2024-01-15T01:59:30.781Z,1.05
2024-01-15T02:02:00.149Z,0.78
2024-01-15T02:04:28.450Z,0.68
2024-01-15T02:06:56.555Z,0.52
2024-01-15T02:09:24.567Z,0.45
2024-01-15T02:11:52.505Z,0.34
2024-01-15T02:14:20.492Z,0.32
2024-01-15T02:16:48.467Z,0.28
2024-01-15T02:19:19.117Z,0.21
2024-01-15T02:21:47.245Z,0.22
2024-01-15T02:24:16.709Z,0.10
2024-01-15T02:26:44.712Z,0.05
2024-01-15T02:29:12.682Z,0.05
2024-01-15T02:31:41.092Z,-0.14
2024-01-15T02:34:09.203Z,0.05
2024-01-15T02:36:37.249Z,-0.01
2024-01-15T02:39:05.355Z,-0.10
2024-01-15T02:41:34.688Z,-0.35
2024-01-15T02:44:02.693Z,-0.48
2024-01-15T02:46:30.686Z,-0.78
2024-01-15T02:48:58.775Z,-0.83
2024-01-15T02:51:26.787Z,-1.05
2024-01-15T02:53:54.795Z,-1.19
2024-01-15T02:56:22.734Z,-1.24
2024-01-15T02:58:52.232Z,-1.33
2024-01-15T03:01:21.684Z,-1.52
2024-01-15T03:03:49.761Z,-1.54
2024-01-15T03:06:17.794Z,-1.65
2024-01-15T03:08:45.850Z,-1.83
2024-01-15T03:11:13.848Z,-1.72
2024-01-15T03:13:41.816Z,-1.84
2024-01-15T03:16:11.139Z,-1.82
2024-01-15T03:18:39.195Z,-1.73
2024-01-15T03:21:07.987Z,-1.71
2024-01-15T03:23:35.998Z,-1.72
2024-01-15T03:26:03.990Z,-1.76
2024-01-15T03:28:32.118Z,-1.81
2024-01-15T03:31:00.336Z,-1.81
2024-01-15T03:33:29.847Z,-1.78
2024-01-15T03:35:57.853Z,-1.76
2024-01-15T03:38:25.864Z,-1.73
2024-01-15T03:40:53.974Z,-1.68
2024-01-15T03:43:22.009Z,-1.72
2024-01-15T03:45:50.122Z,-1.80
2024-01-15T03:48:20.697Z,-1.88
2024-01-15T03:50:50.182Z,-1.96
2024-01-15T03:53:18.176Z,-1.94
2024-01-15T03:55:46.168Z,-1.95
2024-01-15T03:58:16.073Z,-2.09
2024-01-15T04:00:44.434Z,-2.01
2024-01-15T04:03:12.499Z,-2.09
2024-01-15T04:05:40.718Z,-2.05
2024-01-15T04:08:10.256Z,-2.11
2024-01-15T04:10:38.223Z,-2.22
2024-01-15T04:13:06.279Z,-2.21
2024-01-15T04:15:34.332Z,-2.08
2024-01-15T04:18:03.829Z,-2.02
2024-01-15T04:20:32.104Z,-2.00
2024-01-15T04:23:00.077Z,-1.96
2024-01-15T04:25:29.433Z,-1.88
2024-01-15T04:27:57.421Z,-1.80
2024-01-15T04:30:25.650Z,-1.76
2024-01-15T04:32:53.755Z,-1.71
2024-01-15T04:35:21.814Z,-1.66
2024-01-15T04:37:49.812Z,-1.63
2024-01-15T04:40:17.875Z,-1.60
2024-01-15T04:42:47.375Z,-1.62
2024-01-15T04:45:15.636Z,-1.65
2024-01-15T04:47:43.689Z,-1.75
2024-01-15T04:50:11.678Z,-1.96
2024-01-15T04:52:39.640Z,-1.77
2024-01-15T04:55:07.840Z,-1.86
2024-01-15T04:57:35.866Z,-1.84
2024-01-15T05:00:06.413Z,-1.84
2024-01-15T05:02:34.652Z,-1.79
2024-01-15T05:05:02.761Z,-1.80
2024-01-15T05:07:30.761Z,-1.74
2024-01-15T05:09:59.186Z,-1.73
2024-01-15T05:12:27.313Z,-1.79
2024-01-15T05:14:55.303Z,-1.80
2024-01-15T05:17:24.724Z,-1.77
2024-01-15T05:19:52.911Z,-1.78
2024-01-15T05:22:22.249Z,-1.81
2024-01-15T05:24:50.301Z,-1.84
2024-01-15T05:27:18.577Z,-1.90
2024-01-15T05:29:46.602Z,-1.87
2024-01-15T05:32:14.582Z,-1.83
2024-01-15T05:34:44.032Z,-1.90
2024-01-15T05:37:11.986Z,-1.82
2024-01-15T05:39:39.958Z,-1.84
2024-01-15T05:42:08.191Z,-1.81
2024-01-15T05:44:36.386Z,-1.75
2024-01-15T05:47:05.165Z,-1.73
2024-01-15T05:49:33.276Z,-1.65
2024-01-15T05:52:02.790Z,-1.68
2024-01-15T05:54:31.211Z,-1.73
2024-01-15T05:56:59.220Z,-1.79
2024-01-15T05:59:27.734Z,-1.81
2024-01-15T06:01:55.700Z,-1.71
2024-01-15T06:04:23.827Z,-1.59
2024-01-15T06:06:51.823Z,-1.45
2024-01-15T06:09:21.206Z,-1.32
2024-01-15T06:11:49.181Z,-1.18
2024-01-15T06:14:17.149Z,-1.07
2024-01-15T06:16:45.144Z,-0.94
2024-01-15T06:19:13.169Z,-0.83
2024-01-15T06:21:41.159Z,-0.85
2024-01-15T06:24:11.046Z,-0.71
2024-01-15T06:26:40.379Z,-0.61
2024-01-15T06:29:08.305Z,-0.45
2024-01-15T06:31:37.467Z,-0.34
2024-01-15T06:34:05.713Z,-0.24
2024-01-15T06:36:33.715Z,-0.18
2024-01-15T06:39:01.728Z,0.00
2024-01-15T06:41:29.716Z,0.15
2024-01-15T06:43:59.033Z,0.25
2024-01-15T06:46:26.996Z,0.38
2024-01-15T06:48:55.141Z,0.59
2024-01-15T06:51:23.173Z,0.83
2024-01-15T06:53:51.142Z,0.95
2024-01-15T06:56:19.118Z,1.10
2024-01-15T06:58:47.068Z,1.20
2024-01-15T07:01:16.940Z,1.38
2024-01-15T07:03:45.048Z,1.65
2024-01-15T07:06:13.259Z,1.88
2024-01-15T07:08:41.688Z,2.04
2024-01-15T07:11:09.651Z,2.18
2024-01-15T07:13:38.582Z,2.34
2024-01-15T07:16:06.737Z,2.48
2024-01-15T07:18:36.089Z,2.47
2024-01-15T07:21:04.212Z,2.62
2024-01-15T07:23:33.442Z,2.70
2024-01-15T07:26:01.431Z,2.94
2024-01-15T07:28:31.209Z,3.14
2024-01-15T07:30:59.339Z,3.21
2024-01-15T07:33:27.633Z,3.39
2024-01-15T07:35:58.871Z,3.48
2024-01-15T07:38:27.868Z,3.56
2024-01-15T07:40:56.437Z,3.71
2024-01-15T07:43:24.379Z,3.80
2024-01-15T07:45:52.472Z,3.92
2024-01-15T07:48:21.485Z,4.00
2024-01-15T07:50:49.573Z,4.02
2024-01-15T07:53:19.013Z,4.26
2024-01-15T07:55:47.292Z,4.44
2024-01-15T07:58:16.829Z,4.44
2024-01-15T08:00:45.833Z,4.49
2024-01-15T08:03:14.475Z,4.54
2024-01-15T08:05:42.685Z,4.78
2024-01-15T08:08:10.764Z,5.06
2024-01-15T08:10:40.131Z,5.24
2024-01-15T08:13:09.586Z,5.46
2024-01-15T08:15:37.770Z,5.79
2024-01-15T08:18:06.543Z,6.01
2024-01-15T08:20:34.619Z,6.02
2024-01-15T08:23:02.625Z,6.18
2024-01-15T08:25:30.832Z,6.47
2024-01-15T08:28:00.286Z,6.83
2024-01-15T08:30:29.252Z,6.98
2024-01-15T08:33:02.325Z,7.01
2024-01-15T08:35:36.274Z,7.15
2024-01-15T08:38:04.434Z,6.94
2024-01-15T08:40:32.627Z,7.03
2024-01-15T08:43:03.297Z,7.16
2024-01-15T08:45:32.553Z,7.28
2024-01-15T08:48:00.867Z,7.51
2024-01-15T08:50:28.862Z,7.59
2024-01-15T08:52:56.979Z,7.64
2024-01-15T08:55:24.956Z,7.76
2024-01-15T08:57:52.947Z,8.09
2024-01-15T09:00:22.427Z,8.63
2024-01-15T09:02:50.406Z,9.11
2024-01-15T09:05:18.673Z,9.38
2024-01-15T09:07:47.149Z,9.81
2024-01-15T09:10:15.301Z,9.97
2024-01-15T09:12:43.784Z,10.06
2024-01-15T09:15:11.906Z,10.52
2024-01-15T09:17:41.378Z,11.00
2024-01-15T09:20:11.187Z,10.99
2024-01-15T09:22:41.761Z,11.28
2024-01-15T09:25:10.788Z,11.35
2024-01-15T09:27:38.884Z,11.40
2024-01-15T09:30:08.133Z,11.35
2024-01-15T09:32:36.328Z,11.23
2024-01-15T09:35:06.370Z,11.28
2024-01-15T09:37:42.364Z,10.89
2024-01-15T09:40:15.991Z,11.09
2024-01-15T09:42:44.334Z,11.31
2024-01-15T09:45:12.530Z,11.48
2024-01-15T09:47:43.780Z,11.59
2024-01-15T09:50:15.320Z,11.45
2024-01-15T09:52:43.354Z,11.53
2024-01-15T09:55:11.409Z,11.83
2024-01-15T09:57:39.740Z,11.89
2024-01-15T10:00:12.112Z,12.06
2024-01-15T10:02:41.327Z,12.28
2024-01-15T10:05:10.262Z,12.29
2024-01-15T10:07:41.062Z,12.32
2024-01-15T10:10:09.950Z,12.45
2024-01-15T10:12:38.446Z,12.45
2024-01-15T10:15:07.335Z,12.43
2024-01-15T10:17:35.376Z,12.34
2024-01-15T10:20:05.517Z,12.22
2024-01-15T10:22:33.585Z,12.30
2024-01-15T10:25:02.924Z,12.13
2024-01-15T10:27:31.098Z,12.13
2024-01-15T10:30:01.740Z,12.04
2024-01-15T10:32:29.743Z,11.91
2024-01-15T10:34:57.831Z,11.77
2024-01-15T10:37:29.372Z,11.59
2024-01-15T10:39:58.604Z,11.59
2024-01-15T10:42:27.993Z,11.47
2024-01-15T10:44:55.962Z,11.59
2024-01-15T10:47:23.880Z,12.13
2024-01-15T10:49:51.917Z,12.31
2024-01-15T10:52:19.935Z,13.06
2024-01-15T10:54:47.930Z,13.37
2024-01-15T10:57:16.833Z,13.33
2024-01-15T10:59:46.184Z,13.55
2024-01-15T11:02:15.428Z,13.51
2024-01-15T11:04:43.627Z,13.81
2024-01-15T11:07:12.718Z,14.03
2024-01-15T11:09:40.838Z,14.26
2024-01-15T11:12:10.114Z,14.84
2024-01-15T11:14:40.615Z,16.32
2024-01-15T11:17:10.900Z,17.90
2024-01-15T11:19:41.596Z,18.93
2024-01-15T11:22:10.553Z,19.30
2024-01-15T11:24:39.931Z,19.69
2024-01-15T11:27:08.022Z,18.99
2024-01-15T11:29:36.727Z,18.12
2024-01-15T11:32:09.860Z,17.73
2024-01-15T11:34:53.859Z,18.21
2024-01-15T11:37:21.903Z,18.63
2024-01-15T11:39:49.997Z,19.69
2024-01-15T11:42:19.987Z,20.16
2024-01-15T11:44:47.965Z,20.85
2024-01-15T11:47:17.268Z,20.94
2024-01-15T11:50:02.125Z,19.70
2024-01-15T11:52:35.167Z,18.61
2024-01-15T11:55:25.122Z,17.28
2024-01-15T11:57:55.483Z,16.62
2024-01-15T12:00:24.949Z,16.07
2024-01-15T12:02:54.406Z,15.65
2024-01-15T12:05:22.932Z,15.21
2024-01-15T12:07:51.435Z,15.01
2024-01-15T12:10:20.416Z,14.66
2024-01-15T12:12:56.695Z,14.26
2024-01-15T12:15:24.729Z,14.13
2024-01-15T12:17:54.155Z,13.96
2024-01-15T12:20:22.208Z,13.73
2024-01-15T12:22:59.874Z,13.70
2024-01-15T12:25:30.048Z,13.57
2024-01-15T12:27:58.039Z,13.51
2024-01-15T12:30:26.059Z,13.28
2024-01-15T12:32:55.422Z,13.33
2024-01-15T12:35:23.470Z,13.25
2024-01-15T12:37:51.423Z,13.16
2024-01-15T12:40:21.315Z,13.00
2024-01-15T12:42:49.418Z,13.02
2024-01-15T12:45:17.481Z,12.93
2024-01-15T12:47:45.475Z,12.97
2024-01-15T12:50:19.713Z,13.08
2024-01-15T12:52:48.948Z,13.13
2024-01-15T12:55:17.115Z,13.14
2024-01-15T12:57:46.426Z,13.13
2024-01-15T13:00:16.315Z,13.03
2024-01-15T13:02:45.128Z,13.15
2024-01-15T13:05:15.773Z,13.03
2024-01-15T13:07:45.142Z,12.76
2024-01-15T13:10:13.776Z,12.60
2024-01-15T13:12:43.035Z,12.48
2024-01-15T13:15:13.838Z,12.32
2024-01-15T13:17:43.964Z,12.25
2024-01-15T13:20:14.712Z,12.31
2024-01-15T13:22:45.463Z,12.26
2024-01-15T13:25:13.883Z,12.30
2024-01-15T13:27:42.757Z,12.26
2024-01-15T13:30:12.494Z,12.22
2024-01-15T13:32:40.626Z,12.32
2024-01-15T13:35:11.215Z,12.42
2024-01-15T13:37:42.514Z,12.41
2024-01-15T13:40:17.835Z,12.40
2024-01-15T13:42:47.018Z,12.44
2024-01-15T13:45:16.166Z,12.45
2024-01-15T13:47:44.578Z,12.44
2024-01-15T13:50:12.680Z,12.41
2024-01-15T13:52:41.967Z,12.36
2024-01-15T13:55:11.100Z,12.30
2024-01-15T13:57:39.350Z,12.28
2024-01-15T14:00:13.060Z,12.18
2024-01-15T14:02:41.559Z,12.01
2024-01-15T14:05:09.833Z,11.96
2024-01-15T14:07:38.012Z,11.85
2024-01-15T14:10:09.221Z,11.70
2024-01-15T14:12:37.521Z,11.59
2024-01-15T14:15:06.903Z,11.49
2024-01-15T14:17:35.019Z,11.40
2024-01-15T14:20:03.279Z,11.28
2024-01-15T14:22:31.229Z,11.17
2024-01-15T14:24:59.449Z,11.15
2024-01-15T14:27:28.803Z,11.00
2024-01-15T14:29:56.728Z,10.91
2024-01-15T14:32:24.779Z,10.75
2024-01-15T14:34:53.181Z,10.61
2024-01-15T14:37:21.957Z,10.59
2024-01-15T14:39:50.034Z,10.46
2024-01-15T14:42:18.090Z,10.35
2024-01-15T14:44:47.481Z,10.21
2024-01-15T14:47:15.691Z,10.16
2024-01-15T14:49:43.759Z,10.05
2024-01-15T14:52:11.793Z,9.96
2024-01-15T14:54:39.820Z,9.89
2024-01-15T14:57:07.939Z,9.82
2024-01-15T14:59:35.872Z,9.85
2024-01-15T15:02:05.304Z,9.78
2024-01-15T15:04:33.469Z,9.74
2024-01-15T15:07:01.636Z,9.62
2024-01-15T15:09:29.618Z,9.57
2024-01-15T15:11:57.556Z,9.48
2024-01-15T15:14:25.541Z,9.53
2024-01-15T15:16:53.695Z,9.56
2024-01-15T15:19:23.311Z,9.58
2024-01-15T15:21:51.351Z,9.54
2024-01-15T15:24:19.346Z,9.61
2024-01-15T15:26:47.362Z,9.63
2024-01-15T15:29:18.042Z,9.65
2024-01-15T15:31:46.209Z,9.64
2024-01-15T15:34:14.282Z,9.65
2024-01-15T15:36:43.729Z,9.69
2024-01-15T15:39:11.852Z,9.69
2024-01-15T15:41:39.853Z,9.79
2024-01-15T15:44:07.838Z,9.98
2024-01-15T15:46:35.841Z,9.92
2024-01-15T15:49:07.998Z,9.92
2024-01-15T15:51:36.907Z,9.80
2024-01-15T15:54:06.803Z,9.76
2024-01-15T15:56:39.394Z,9.73
2024-01-15T15:59:09.630Z,9.72
2024-01-15T16:01:37.944Z,9.68
2024-01-15T16:04:06.392Z,9.70
2024-01-15T16:06:34.587Z,9.66
2024-01-15T16:09:02.573Z,9.69
2024-01-15T16:11:32.877Z,9.67
2024-01-15T16:14:02.963Z,9.72
2024-01-15T16:23:11.505Z,9.79
2024-01-15T16:23:24.798Z,9.82
2024-01-15T16:23:40.399Z,9.87
2024-01-15T16:25:00.646Z,9.82
2024-01-15T16:27:33.976Z,9.78
2024-01-15T16:30:02.714Z,9.73
2024-01-15T16:32:31.620Z,9.52
2024-01-15T16:35:00.040Z,9.45
2024-01-15T16:37:28.673Z,9.49
2024-01-15T16:39:56.757Z,9.45
2024-01-15T16:42:25.195Z,9.47
2024-01-15T16:44:54.624Z,9.43
2024-01-15T16:47:22.900Z,9.51
2024-01-15T16:49:50.874Z,9.51
2024-01-15T16:52:19.006Z,9.56
2024-01-15T16:54:47.014Z,9.50
2024-01-15T16:57:15.046Z,9.46
2024-01-15T16:59:43.064Z,9.43
2024-01-15T17:02:12.489Z,9.44
2024-01-15T17:04:40.493Z,9.53
2024-01-15T17:07:09.349Z,9.36
2024-01-15T17:09:37.321Z,9.52
2024-01-15T17:12:06.445Z,9.61
2024-01-15T17:14:34.512Z,9.57
2024-01-15T17:17:02.736Z,9.71
2024-01-15T17:19:33.524Z,9.78
2024-01-15T17:22:00.900Z,9.93
2024-01-15T17:24:29.585Z,9.92
2024-01-15T17:26:58.411Z,9.93
2024-01-15T17:29:26.467Z,10.01
2024-01-15T17:31:54.473Z,10.06
2024-01-15T17:34:22.553Z,10.07
2024-01-15T17:36:51.958Z,10.08
2024-01-15T17:39:20.403Z,10.00
2024-01-15T17:41:49.137Z,10.15
2024-01-15T17:44:18.056Z,10.18
2024-01-15T17:46:46.108Z,10.17
2024-01-15T17:49:14.186Z,10.20
2024-01-15T17:51:42.305Z,10.16
2024-01-15T17:54:11.629Z,10.18
2024-01-15T17:56:40.067Z,10.11
2024-01-15T17:59:08.716Z,10.10
2024-01-15T18:01:37.463Z,10.03
2024-01-15T18:04:05.801Z,10.10
2024-01-15T18:06:34.016Z,10.18
2024-01-15T18:09:02.196Z,10.25
2024-01-15T18:11:31.778Z,10.33
2024-01-15T18:13:59.787Z,10.30
2024-01-15T18:16:28.724Z,10.35
2024-01-15T18:18:56.875Z,10.38
2024-01-15T18:21:25.041Z,10.39
2024-01-15T18:23:52.993Z,10.35
2024-01-15T18:26:21.002Z,10.35
2024-01-15T18:28:50.317Z,10.26
2024-01-15T18:31:18.470Z,10.27
2024-01-15T18:33:46.518Z,10.33
2024-01-15T18:36:14.730Z,10.36
2024-01-15T18:38:42.744Z,10.39
2024-01-15T18:41:10.743Z,10.43
2024-01-15T18:43:38.729Z,10.40
2024-01-15T18:46:08.935Z,10.27
2024-01-15T18:48:37.357Z,10.12
2024-01-15T18:51:05.451Z,10.35
2024-01-15T18:53:33.451Z,10.33
2024-01-15T18:56:03.756Z,10.46
2024-01-15T18:58:32.382Z,10.50
2024-01-15T19:01:00.771Z,10.58
2024-01-15T19:03:30.179Z,10.57
2024-01-15T19:05:58.382Z,10.50
2024-01-15T19:08:26.381Z,10.55
2024-01-15T19:10:55.405Z,10.50
2024-01-15T19:13:23.398Z,10.43
2024-01-15T19:15:51.420Z,10.48
2024-01-15T19:18:19.758Z,10.52
2024-01-15T19:20:49.289Z,10.53
2024-01-15T19:23:17.298Z,10.52
2024-01-15T19:25:45.274Z,10.48
2024-01-15T19:28:14.654Z,10.56
2024-01-15T19:30:42.874Z,10.51
2024-01-15T19:33:11.003Z,10.45
2024-01-15T19:35:39.271Z,10.46
2024-01-15T19:38:08.750Z,10.49
2024-01-15T19:40:36.941Z,10.50
2024-01-15T19:43:05.236Z,10.50
2024-01-15T19:45:33.196Z,10.53
2024-01-15T19:48:01.462Z,10.55
2024-01-15T19:50:29.723Z,10.57
2024-01-15T19:52:57.824Z,10.56
2024-01-15T19:55:27.309Z,10.33
2024-01-15T19:57:55.225Z,10.26
2024-01-15T20:00:23.151Z,10.22
2024-01-15T20:02:51.318Z,10.17
2024-01-15T20:05:19.327Z,10.15
2024-01-15T20:07:47.361Z,10.05
2024-01-15T20:10:15.459Z,9.90
2024-01-15T20:12:44.756Z,9.73
2024-01-15T20:15:13.009Z,9.63
2024-01-15T20:17:41.052Z,9.59
2024-01-15T20:20:12.125Z,9.49
2024-01-15T20:22:40.283Z,9.28
2024-01-15T20:25:09.236Z,9.34
2024-01-15T20:27:37.211Z,9.19
2024-01-15T20:30:07.982Z,9.00
2024-01-15T20:32:36.825Z,8.91
2024-01-15T20:35:06.105Z,8.78
2024-01-15T20:37:34.157Z,8.67
2024-01-15T20:40:02.163Z,8.45
2024-01-15T20:42:30.228Z,8.38
2024-01-15T20:44:58.360Z,8.32
2024-01-15T20:47:28.225Z,8.20
2024-01-15T20:49:56.267Z,8.14
2024-01-15T20:52:25.586Z,8.15
2024-01-15T20:54:53.987Z,8.05
2024-01-15T20:57:21.928Z,8.22
2024-01-15T20:59:51.866Z,8.21
2024-01-15T21:02:20.150Z,8.36
2024-01-15T21:04:49.642Z,8.76
2024-01-15T21:07:17.694Z,8.98
2024-01-15T21:09:45.626Z,9.14
2024-01-15T21:12:13.564Z,9.39
2024-01-15T21:14:41.689Z,9.63
2024-01-15T21:17:09.696Z,9.80
2024-01-15T21:19:37.707Z,10.03
2024-01-15T21:22:07.253Z,10.16
2024-01-15T21:24:35.247Z,10.35
2024-01-15T21:27:03.255Z,10.43
2024-01-15T21:29:31.266Z,10.60
2024-01-15T21:31:59.508Z,10.68
2024-01-15T21:34:27.540Z,10.82
2024-01-15T21:36:55.610Z,10.81
2024-01-15T21:39:24.995Z,10.89
2024-01-15T21:41:53.042Z,10.87
2024-01-15T21:44:21.036Z,10.92
2024-01-15T21:46:49.040Z,10.92
2024-01-15T21:49:17.026Z,10.75
2024-01-15T21:51:45.057Z,10.90
2024-01-15T21:54:13.063Z,10.95
2024-01-15T21:56:42.407Z,10.93
2024-01-15T21:59:10.467Z,10.98
2024-01-15T22:01:38.423Z,10.96
2024-01-15T22:04:06.879Z,10.98
2024-01-15T22:06:36.791Z,10.98
2024-01-15T22:09:05.167Z,10.95
2024-01-15T22:11:33.239Z,10.88
2024-01-15T22:14:03.218Z,10.89
2024-01-15T22:16:31.310Z,10.92
2024-01-15T22:19:02.553Z,10.95
2024-01-15T22:21:30.887Z,10.96
2024-01-15T22:23:59.058Z,10.92
2024-01-15T22:26:26.989Z,10.94
2024-01-15T22:28:54.991Z,10.98
2024-01-15T22:31:24.379Z,11.03
2024-01-15T22:33:52.494Z,10.96
2024-01-15T22:36:20.571Z,11.08
2024-01-15T22:38:49.864Z,11.03
2024-01-15T22:41:17.907Z,10.98
2024-01-15T22:43:46.823Z,10.79
2024-01-15T22:46:15.302Z,10.67
2024-01-15T22:48:45.052Z,10.58
2024-01-15T22:51:13.112Z,10.50
2024-01-15T22:53:41.155Z,10.28
2024-01-15T22:56:09.264Z,10.31
2024-01-15T22:58:37.250Z,10.25
2024-01-15T23:01:06.874Z,10.24
2024-01-15T23:03:35.046Z,10.20
2024-01-15T23:06:05.122Z,10.12
2024-01-15T23:08:33.195Z,10.20
2024-01-15T23:11:01.200Z,10.18
2024-01-15T23:13:29.134Z,10.19
2024-01-15T23:15:57.207Z,10.18
2024-01-15T23:18:25.307Z,10.14
2024-01-15T23:20:53.465Z,10.07
2024-01-15T23:23:22.867Z,9.85
2024-01-15T23:25:50.837Z,9.82
2024-01-15T23:28:19.482Z,9.74
2024-01-15T23:30:47.605Z,9.66
2024-01-15T23:33:15.743Z,9.53
2024-01-15T23:35:43.827Z,9.37
2024-01-15T23:38:11.855Z,9.30
2024-01-15T23:40:41.253Z,9.17
2024-01-15T23:43:09.163Z,9.24
2024-01-15T23:45:37.087Z,9.22
2024-01-15T23:48:05.815Z,9.25
2024-01-15T23:50:33.859Z,9.40
2024-01-15T23:53:01.873Z,9.38
2024-01-15T23:55:29.820Z,9.34
2024-01-15T23:58:00.206Z,9.35
